sensor_id;sensor_type;location;lat;lon;timestamp;P1;durP1;ratioP1;P2;durP2;ratioP2
47021;SDS011;32779;52.264;6.154;2022-10-16T00:01:18;8.00;;;2.83;;
47021;SDS011;32779;52.264;6.154;2022-10-16T00:03:46;7.35;;;2.67;;
47021;SDS011;32779;52.264;6.154;2022-10-16T00:06:12;4.93;;;2.55;;
47021;SDS011;32779;52.264;6.154;2022-10-16T00:08:39;8.90;;;2.65;;
47021;SDS011;32779;52.264;6.154;2022-10-16T00:11:06;7.40;;;3.03;;
47021;SDS011;32779;52.264;6.154;2022-10-16T00:13:32;7.00;;;2.72;;
47021;SDS011;32779;52.264;6.154;2022-10-16T00:15:58;9.77;;;3.00;;
47021;SDS011;32779;52.264;6.154;2022-10-16T00:18:25;6.80;;;2.40;;
47021;SDS011;32779;52.264;6.154;2022-10-16T00:20:51;9.35;;;2.92;;
47021;SDS011;32779;52.264;6.154;2022-10-16T00:23:17;9.95;;;2.97;;
47021;SDS011;32779;52.264;6.154;2022-10-16T00:25:42;6.07;;;2.53;;
47021;SDS011;32779;52.264;6.154;2022-10-16T00:28:08;8.13;;;2.60;;
47021;SDS011;32779;52.264;6.154;2022-10-16T00:30:33;8.02;;;2.40;;
47021;SDS011;32779;52.264;6.154;2022-10-16T00:33:03;5.75;;;2.10;;
47021;SDS011;32779;52.264;6.154;2022-10-16T00:37:55;8.95;;;2.42;;
47021;SDS011;32779;52.264;6.154;2022-10-16T00:40:21;7.72;;;2.83;;
47021;SDS011;32779;52.264;6.154;2022-10-16T00:42:46;7.13;;;2.60;;
47021;SDS011;32779;52.264;6.154;2022-10-16T00:45:12;6.20;;;2.20;;
47021;SDS011;32779;52.264;6.154;2022-10-16T00:47:47;11.57;;;2.83;;
47021;SDS011;32779;52.264;6.154;2022-10-16T00:50:18;8.55;;;3.00;;
47021;SDS011;32779;52.264;6.154;2022-10-16T00:52:54;11.65;;;2.70;;
47021;SDS011;32779;52.264;6.154;2022-10-16T00:55:22;8.20;;;3.33;;
47021;SDS011;32779;52.264;6.154;2022-10-16T00:57:48;7.30;;;3.17;;
47021;SDS011;32779;52.264;6.154;2022-10-16T01:00:18;11.35;;;4.07;;
47021;SDS011;32779;52.264;6.154;2022-10-16T01:02:53;10.95;;;3.15;;
47021;SDS011;32779;52.264;6.154;2022-10-16T01:05:21;5.72;;;3.15;;
47021;SDS011;32779;52.264;6.154;2022-10-16T01:07:55;10.82;;;3.67;;
47021;SDS011;32779;52.264;6.154;2022-10-16T01:13:18;7.63;;;3.05;;
47021;SDS011;32779;52.264;6.154;2022-10-16T01:15:56;8.60;;;3.10;;
47021;SDS011;32779;52.264;6.154;2022-10-16T01:20:59;10.32;;;3.47;;
47021;SDS011;32779;52.264;6.154;2022-10-16T01:23:36;15.23;;;3.38;;
47021;SDS011;32779;52.264;6.154;2022-10-16T01:31:42;5.32;;;2.97;;
47021;SDS011;32779;52.264;6.154;2022-10-16T01:34:17;7.05;;;3.05;;
47021;SDS011;32779;52.264;6.154;2022-10-16T01:37:11;7.15;;;2.90;;
47021;SDS011;32779;52.264;6.154;2022-10-16T01:39:40;27.15;;;4.53;;
47021;SDS011;32779;52.264;6.154;2022-10-16T01:42:14;6.43;;;2.90;;
47021;SDS011;32779;52.264;6.154;2022-10-16T01:44:51;4.95;;;2.80;;
47021;SDS011;32779;52.264;6.154;2022-10-16T01:47:19;7.07;;;2.95;;
47021;SDS011;32779;52.264;6.154;2022-10-16T01:49:48;10.52;;;3.10;;
47021;SDS011;32779;52.264;6.154;2022-10-16T01:52:17;9.57;;;3.70;;
47021;SDS011;32779;52.264;6.154;2022-10-16T01:54:47;10.30;;;3.38;;
47021;SDS011;32779;52.264;6.154;2022-10-16T01:57:15;6.57;;;3.25;;
47021;SDS011;32779;52.264;6.154;2022-10-16T01:59:44;5.57;;;3.35;;
47021;SDS011;32779;52.264;6.154;2022-10-16T02:02:12;7.40;;;3.55;;
47021;SDS011;32779;52.264;6.154;2022-10-16T02:04:47;8.52;;;3.10;;
47021;SDS011;32779;52.264;6.154;2022-10-16T02:07:16;7.30;;;3.20;;
47021;SDS011;32779;52.264;6.154;2022-10-16T02:09:42;8.10;;;3.17;;
47021;SDS011;32779;52.264;6.154;2022-10-16T02:14:40;7.28;;;2.85;;
47021;SDS011;32779;52.264;6.154;2022-10-16T02:19:36;7.00;;;3.97;;
47021;SDS011;32779;52.264;6.154;2022-10-16T02:22:04;5.07;;;2.97;;
47021;SDS011;32779;52.264;6.154;2022-10-16T02:24:51;7.63;;;2.92;;
47021;SDS011;32779;52.264;6.154;2022-10-16T02:27:25;5.50;;;3.13;;
47021;SDS011;32779;52.264;6.154;2022-10-16T02:30:31;7.25;;;3.10;;
47021;SDS011;32779;52.264;6.154;2022-10-16T02:33:01;6.75;;;2.90;;
47021;SDS011;32779;52.264;6.154;2022-10-16T02:35:31;5.03;;;3.20;;
47021;SDS011;32779;52.264;6.154;2022-10-16T02:37:57;6.60;;;2.80;;
47021;SDS011;32779;52.264;6.154;2022-10-16T02:42:52;6.55;;;3.03;;
47021;SDS011;32779;52.264;6.154;2022-10-16T02:45:18;6.68;;;2.83;;
47021;SDS011;32779;52.264;6.154;2022-10-16T02:47:45;5.28;;;3.22;;
47021;SDS011;32779;52.264;6.154;2022-10-16T02:50:10;8.77;;;3.20;;
47021;SDS011;32779;52.264;6.154;2022-10-16T02:52:36;8.05;;;2.95;;
47021;SDS011;32779;52.264;6.154;2022-10-16T02:55:02;8.15;;;3.20;;
47021;SDS011;32779;52.264;6.154;2022-10-16T02:57:27;5.28;;;2.75;;
47021;SDS011;32779;52.264;6.154;2022-10-16T02:59:53;4.90;;;2.72;;
47021;SDS011;32779;52.264;6.154;2022-10-16T03:02:19;3.58;;;3.10;;
47021;SDS011;32779;52.264;6.154;2022-10-16T03:04:44;5.07;;;3.10;;
47021;SDS011;32779;52.264;6.154;2022-10-16T03:07:10;5.82;;;3.50;;
47021;SDS011;32779;52.264;6.154;2022-10-16T03:09:36;7.68;;;2.92;;
47021;SDS011;32779;52.264;6.154;2022-10-16T03:12:01;6.82;;;3.05;;
47021;SDS011;32779;52.264;6.154;2022-10-16T03:14:27;6.88;;;3.35;;
47021;SDS011;32779;52.264;6.154;2022-10-16T03:16:53;7.25;;;2.92;;
47021;SDS011;32779;52.264;6.154;2022-10-16T03:19:18;6.97;;;3.08;;
47021;SDS011;32779;52.264;6.154;2022-10-16T03:21:44;5.65;;;3.30;;
47021;SDS011;32779;52.264;6.154;2022-10-16T03:26:36;13.02;;;3.15;;
47021;SDS011;32779;52.264;6.154;2022-10-16T03:29:02;5.88;;;2.83;;
47021;SDS011;32779;52.264;6.154;2022-10-16T03:33:54;7.70;;;2.88;;
47021;SDS011;32779;52.264;6.154;2022-10-16T03:36:19;3.58;;;2.72;;
47021;SDS011;32779;52.264;6.154;2022-10-16T03:38:45;7.68;;;3.08;;
47021;SDS011;32779;52.264;6.154;2022-10-16T03:41:10;6.43;;;2.72;;
47021;SDS011;32779;52.264;6.154;2022-10-16T03:43:36;3.92;;;2.72;;
47021;SDS011;32779;52.264;6.154;2022-10-16T03:46:02;5.63;;;3.20;;
47021;SDS011;32779;52.264;6.154;2022-10-16T03:48:28;3.80;;;2.70;;
47021;SDS011;32779;52.264;6.154;2022-10-16T03:50:54;6.20;;;2.83;;
47021;SDS011;32779;52.264;6.154;2022-10-16T03:53:19;6.38;;;2.95;;
47021;SDS011;32779;52.264;6.154;2022-10-16T03:55:45;5.80;;;3.00;;
47021;SDS011;32779;52.264;6.154;2022-10-16T03:58:11;7.07;;;2.95;;
47021;SDS011;32779;52.264;6.154;2022-10-16T04:00:41;5.32;;;2.67;;
47021;SDS011;32779;52.264;6.154;2022-10-16T04:03:07;5.75;;;2.92;;
47021;SDS011;32779;52.264;6.154;2022-10-16T04:05:33;5.20;;;2.67;;
47021;SDS011;32779;52.264;6.154;2022-10-16T04:07:59;7.13;;;2.90;;
47021;SDS011;32779;52.264;6.154;2022-10-16T04:10:25;4.63;;;2.90;;
47021;SDS011;32779;52.264;6.154;2022-10-16T04:12:50;5.72;;;2.78;;
47021;SDS011;32779;52.264;6.154;2022-10-16T04:15:16;14.77;;;2.83;;
47021;SDS011;32779;52.264;6.154;2022-10-16T04:17:42;3.60;;;2.70;;
47021;SDS011;32779;52.264;6.154;2022-10-16T04:20:07;5.85;;;2.40;;
47021;SDS011;32779;52.264;6.154;2022-10-16T04:22:33;7.72;;;2.30;;
47021;SDS011;32779;52.264;6.154;2022-10-16T04:24:59;3.78;;;2.70;;
47021;SDS011;32779;52.264;6.154;2022-10-16T04:27:24;5.00;;;2.55;;
47021;SDS011;32779;52.264;6.154;2022-10-16T04:29:50;6.65;;;2.60;;
47021;SDS011;32779;52.264;6.154;2022-10-16T04:32:16;5.25;;;2.65;;
47021;SDS011;32779;52.264;6.154;2022-10-16T04:34:41;6.80;;;2.22;;
47021;SDS011;32779;52.264;6.154;2022-10-16T04:37:07;2.75;;;2.00;;
47021;SDS011;32779;52.264;6.154;2022-10-16T04:39:33;4.93;;;2.30;;
47021;SDS011;32779;52.264;6.154;2022-10-16T04:41:58;9.60;;;2.38;;
47021;SDS011;32779;52.264;6.154;2022-10-16T04:44:24;6.35;;;2.30;;
47021;SDS011;32779;52.264;6.154;2022-10-16T04:46:50;5.38;;;2.00;;
47021;SDS011;32779;52.264;6.154;2022-10-16T04:49:16;4.30;;;2.05;;
47021;SDS011;32779;52.264;6.154;2022-10-16T04:51:41;4.97;;;2.45;;
47021;SDS011;32779;52.264;6.154;2022-10-16T04:54:07;3.17;;;1.92;;
47021;SDS011;32779;52.264;6.154;2022-10-16T04:56:34;4.13;;;2.28;;
47021;SDS011;32779;52.264;6.154;2022-10-16T04:59:07;6.13;;;2.40;;
47021;SDS011;32779;52.264;6.154;2022-10-16T05:01:33;8.95;;;2.22;;
47021;SDS011;32779;52.264;6.154;2022-10-16T05:03:58;4.45;;;1.80;;
47021;SDS011;32779;52.264;6.154;2022-10-16T05:06:24;5.78;;;1.98;;
47021;SDS011;32779;52.264;6.154;2022-10-16T05:08:49;5.43;;;2.15;;
47021;SDS011;32779;52.264;6.154;2022-10-16T05:11:15;5.97;;;2.40;;
47021;SDS011;32779;52.264;6.154;2022-10-16T05:13:41;11.15;;;2.70;;
47021;SDS011;32779;52.264;6.154;2022-10-16T05:16:06;10.00;;;2.17;;
47021;SDS011;32779;52.264;6.154;2022-10-16T05:18:32;7.82;;;2.53;;
47021;SDS011;32779;52.264;6.154;2022-10-16T05:20:57;1.83;;;1.70;;
47021;SDS011;32779;52.264;6.154;2022-10-16T05:23:23;4.25;;;2.13;;
47021;SDS011;32779;52.264;6.154;2022-10-16T05:25:52;3.03;;;2.00;;
47021;SDS011;32779;52.264;6.154;2022-10-16T05:28:19;5.10;;;2.05;;
47021;SDS011;32779;52.264;6.154;2022-10-16T05:30:45;6.93;;;2.13;;
47021;SDS011;32779;52.264;6.154;2022-10-16T05:33:10;6.20;;;2.33;;
47021;SDS011;32779;52.264;6.154;2022-10-16T05:35:36;4.88;;;2.10;;
47021;SDS011;32779;52.264;6.154;2022-10-16T05:38:01;7.18;;;2.15;;
47021;SDS011;32779;52.264;6.154;2022-10-16T05:40:27;11.05;;;2.28;;
47021;SDS011;32779;52.264;6.154;2022-10-16T05:42:56;4.05;;;1.98;;
47021;SDS011;32779;52.264;6.154;2022-10-16T05:45:21;5.30;;;2.22;;
47021;SDS011;32779;52.264;6.154;2022-10-16T05:47:47;6.05;;;2.97;;
47021;SDS011;32779;52.264;6.154;2022-10-16T05:50:12;5.82;;;2.33;;
47021;SDS011;32779;52.264;6.154;2022-10-16T05:52:38;5.38;;;2.13;;
47021;SDS011;32779;52.264;6.154;2022-10-16T05:55:04;5.32;;;2.70;;
47021;SDS011;32779;52.264;6.154;2022-10-16T05:57:30;5.40;;;2.13;;
47021;SDS011;32779;52.264;6.154;2022-10-16T05:59:56;3.85;;;1.80;;
47021;SDS011;32779;52.264;6.154;2022-10-16T06:02:21;4.05;;;1.95;;
47021;SDS011;32779;52.264;6.154;2022-10-16T06:04:47;4.82;;;1.77;;
47021;SDS011;32779;52.264;6.154;2022-10-16T06:07:12;3.78;;;2.08;;
47021;SDS011;32779;52.264;6.154;2022-10-16T06:09:38;6.80;;;2.20;;
47021;SDS011;32779;52.264;6.154;2022-10-16T06:12:04;9.40;;;2.38;;
47021;SDS011;32779;52.264;6.154;2022-10-16T06:14:29;10.43;;;2.00;;
47021;SDS011;32779;52.264;6.154;2022-10-16T06:16:55;7.30;;;2.10;;
47021;SDS011;32779;52.264;6.154;2022-10-16T06:19:21;4.20;;;1.75;;
47021;SDS011;32779;52.264;6.154;2022-10-16T06:21:47;5.25;;;1.95;;
47021;SDS011;32779;52.264;6.154;2022-10-16T06:24:13;4.07;;;2.10;;
47021;SDS011;32779;52.264;6.154;2022-10-16T06:26:38;4.72;;;2.40;;
47021;SDS011;32779;52.264;6.154;2022-10-16T06:29:04;4.38;;;2.25;;
47021;SDS011;32779;52.264;6.154;2022-10-16T06:31:30;5.15;;;1.92;;
47021;SDS011;32779;52.264;6.154;2022-10-16T06:33:58;5.15;;;2.58;;
47021;SDS011;32779;52.264;6.154;2022-10-16T06:36:24;6.05;;;2.20;;
47021;SDS011;32779;52.264;6.154;2022-10-16T06:41:17;5.30;;;2.92;;
47021;SDS011;32779;52.264;6.154;2022-10-16T06:43:44;6.03;;;2.28;;
47021;SDS011;32779;52.264;6.154;2022-10-16T06:46:11;5.75;;;2.20;;
47021;SDS011;32779;52.264;6.154;2022-10-16T06:48:38;6.45;;;2.22;;
47021;SDS011;32779;52.264;6.154;2022-10-16T06:51:05;8.57;;;2.08;;
47021;SDS011;32779;52.264;6.154;2022-10-16T06:53:33;9.88;;;2.22;;
47021;SDS011;32779;52.264;6.154;2022-10-16T06:56:07;5.72;;;2.25;;
47021;SDS011;32779;52.264;6.154;2022-10-16T06:58:34;4.72;;;2.20;;
47021;SDS011;32779;52.264;6.154;2022-10-16T07:00:59;10.50;;;2.75;;
47021;SDS011;32779;52.264;6.154;2022-10-16T07:03:25;7.18;;;2.15;;
47021;SDS011;32779;52.264;6.154;2022-10-16T07:05:50;5.93;;;1.90;;
47021;SDS011;32779;52.264;6.154;2022-10-16T07:08:16;9.45;;;2.30;;
47021;SDS011;32779;52.264;6.154;2022-10-16T07:10:41;3.95;;;2.00;;
47021;SDS011;32779;52.264;6.154;2022-10-16T07:13:07;4.32;;;2.05;;
47021;SDS011;32779;52.264;6.154;2022-10-16T07:15:33;5.90;;;3.00;;
47021;SDS011;32779;52.264;6.154;2022-10-16T07:17:59;6.45;;;2.45;;
47021;SDS011;32779;52.264;6.154;2022-10-16T07:20:25;12.60;;;3.10;;
47021;SDS011;32779;52.264;6.154;2022-10-16T07:22:51;2.65;;;1.92;;
47021;SDS011;32779;52.264;6.154;2022-10-16T07:27:42;4.15;;;2.05;;
47021;SDS011;32779;52.264;6.154;2022-10-16T07:30:08;5.55;;;1.95;;
47021;SDS011;32779;52.264;6.154;2022-10-16T07:32:34;6.38;;;2.30;;
47021;SDS011;32779;52.264;6.154;2022-10-16T07:34:59;5.20;;;2.40;;
47021;SDS011;32779;52.264;6.154;2022-10-16T07:37:25;6.78;;;1.90;;
47021;SDS011;32779;52.264;6.154;2022-10-16T07:42:16;6.20;;;2.05;;
47021;SDS011;32779;52.264;6.154;2022-10-16T07:44:42;4.38;;;1.83;;
47021;SDS011;32779;52.264;6.154;2022-10-16T07:49:33;5.32;;;2.25;;
47021;SDS011;32779;52.264;6.154;2022-10-16T07:51:59;6.75;;;2.00;;
47021;SDS011;32779;52.264;6.154;2022-10-16T07:54:24;6.65;;;2.17;;
47021;SDS011;32779;52.264;6.154;2022-10-16T07:59:15;10.73;;;2.38;;
47021;SDS011;32779;52.264;6.154;2022-10-16T08:01:41;6.60;;;1.75;;
47021;SDS011;32779;52.264;6.154;2022-10-16T08:04:07;9.20;;;1.70;;
47021;SDS011;32779;52.264;6.154;2022-10-16T08:06:38;3.25;;;1.80;;
47021;SDS011;32779;52.264;6.154;2022-10-16T08:09:05;3.65;;;1.98;;
47021;SDS011;32779;52.264;6.154;2022-10-16T08:11:32;6.88;;;2.00;;
47021;SDS011;32779;52.264;6.154;2022-10-16T08:13:58;6.60;;;1.90;;
47021;SDS011;32779;52.264;6.154;2022-10-16T08:16:24;5.80;;;1.98;;
47021;SDS011;32779;52.264;6.154;2022-10-16T08:18:50;5.97;;;1.77;;
47021;SDS011;32779;52.264;6.154;2022-10-16T08:21:17;4.30;;;1.75;;
47021;SDS011;32779;52.264;6.154;2022-10-16T08:23:44;20.67;;;3.60;;
47021;SDS011;32779;52.264;6.154;2022-10-16T08:26:10;8.32;;;2.00;;
47021;SDS011;32779;52.264;6.154;2022-10-16T08:31:35;5.63;;;1.70;;
47021;SDS011;32779;52.264;6.154;2022-10-16T08:33:53;2.97;;;1.85;;
47021;SDS011;32779;52.264;6.154;2022-10-16T08:36:19;4.68;;;2.13;;
47021;SDS011;32779;52.264;6.154;2022-10-16T08:46:31;6.82;;;1.70;;
47021;SDS011;32779;52.264;6.154;2022-10-16T08:49:03;6.05;;;1.92;;
47021;SDS011;32779;52.264;6.154;2022-10-16T08:51:32;4.03;;;1.83;;
47021;SDS011;32779;52.264;6.154;2022-10-16T08:54:24;5.35;;;2.30;;
47021;SDS011;32779;52.264;6.154;2022-10-16T08:59:41;7.18;;;1.95;;
47021;SDS011;32779;52.264;6.154;2022-10-16T09:02:22;6.40;;;2.35;;
47021;SDS011;32779;52.264;6.154;2022-10-16T09:05:11;6.47;;;2.13;;
47021;SDS011;32779;52.264;6.154;2022-10-16T09:08:01;7.82;;;2.38;;
47021;SDS011;32779;52.264;6.154;2022-10-16T09:22:46;6.38;;;2.17;;
47021;SDS011;32779;52.264;6.154;2022-10-16T09:25:14;5.10;;;1.90;;
47021;SDS011;32779;52.264;6.154;2022-10-16T09:27:45;6.63;;;1.98;;
47021;SDS011;32779;52.264;6.154;2022-10-16T09:30:14;6.97;;;2.08;;
47021;SDS011;32779;52.264;6.154;2022-10-16T09:32:44;12.10;;;2.40;;
47021;SDS011;32779;52.264;6.154;2022-10-16T09:35:14;6.43;;;1.83;;
47021;SDS011;32779;52.264;6.154;2022-10-16T09:37:46;7.65;;;1.80;;
47021;SDS011;32779;52.264;6.154;2022-10-16T09:40:31;8.90;;;2.22;;
47021;SDS011;32779;52.264;6.154;2022-10-16T09:46:00;14.50;;;2.75;;
47021;SDS011;32779;52.264;6.154;2022-10-16T09:48:33;8.07;;;2.40;;
47021;SDS011;32779;52.264;6.154;2022-10-16T09:52:02;10.48;;;2.25;;
47021;SDS011;32779;52.264;6.154;2022-10-16T09:54:11;7.07;;;2.05;;
47021;SDS011;32779;52.264;6.154;2022-10-16T09:56:41;7.22;;;1.92;;
47021;SDS011;32779;52.264;6.154;2022-10-16T09:59:17;8.13;;;2.00;;
47021;SDS011;32779;52.264;6.154;2022-10-16T10:01:48;13.23;;;2.20;;
47021;SDS011;32779;52.264;6.154;2022-10-16T10:04:16;8.30;;;2.03;;
47021;SDS011;32779;52.264;6.154;2022-10-16T10:09:32;9.93;;;2.00;;
47021;SDS011;32779;52.264;6.154;2022-10-16T10:12:20;11.98;;;2.25;;
47021;SDS011;32779;52.264;6.154;2022-10-16T10:14:55;13.77;;;2.15;;
47021;SDS011;32779;52.264;6.154;2022-10-16T10:17:25;9.63;;;2.10;;
47021;SDS011;32779;52.264;6.154;2022-10-16T10:19:53;12.00;;;2.50;;
47021;SDS011;32779;52.264;6.154;2022-10-16T10:22:26;10.52;;;2.17;;
47021;SDS011;32779;52.264;6.154;2022-10-16T10:24:55;11.93;;;2.17;;
47021;SDS011;32779;52.264;6.154;2022-10-16T10:27:24;12.90;;;1.85;;
47021;SDS011;32779;52.264;6.154;2022-10-16T10:30:01;13.35;;;2.80;;
47021;SDS011;32779;52.264;6.154;2022-10-16T10:32:32;12.00;;;2.28;;
47021;SDS011;32779;52.264;6.154;2022-10-16T10:35:22;9.43;;;2.22;;
47021;SDS011;32779;52.264;6.154;2022-10-16T10:38:16;10.85;;;2.47;;
47021;SDS011;32779;52.264;6.154;2022-10-16T10:46:15;14.38;;;2.63;;
47021;SDS011;32779;52.264;6.154;2022-10-16T10:51:56;15.27;;;2.00;;
47021;SDS011;32779;52.264;6.154;2022-10-16T10:55:09;15.10;;;2.63;;
47021;SDS011;32779;52.264;6.154;2022-10-16T10:57:25;14.68;;;2.28;;
47021;SDS011;32779;52.264;6.154;2022-10-16T11:00:13;15.23;;;2.37;;
47021;SDS011;32779;52.264;6.154;2022-10-16T11:03:05;15.02;;;2.33;;
47021;SDS011;32779;52.264;6.154;2022-10-16T11:08:17;10.18;;;1.90;;
47021;SDS011;32779;52.264;6.154;2022-10-16T11:10:49;11.25;;;2.20;;
47021;SDS011;32779;52.264;6.154;2022-10-16T11:13:23;18.02;;;2.17;;
47021;SDS011;32779;52.264;6.154;2022-10-16T11:15:53;13.30;;;2.33;;
47021;SDS011;32779;52.264;6.154;2022-10-16T11:18:29;13.27;;;2.25;;
47021;SDS011;32779;52.264;6.154;2022-10-16T11:21:04;14.98;;;2.22;;
47021;SDS011;32779;52.264;6.154;2022-10-16T11:23:35;11.30;;;2.38;;
47021;SDS011;32779;52.264;6.154;2022-10-16T11:26:14;10.80;;;2.20;;
47021;SDS011;32779;52.264;6.154;2022-10-16T11:28:51;9.93;;;1.95;;
47021;SDS011;32779;52.264;6.154;2022-10-16T11:34:27;13.27;;;1.98;;
47021;SDS011;32779;52.264;6.154;2022-10-16T11:37:10;14.30;;;2.60;;
47021;SDS011;32779;52.264;6.154;2022-10-16T11:39:45;11.05;;;1.98;;
47021;SDS011;32779;52.264;6.154;2022-10-16T11:42:19;10.98;;;2.10;;
47021;SDS011;32779;52.264;6.154;2022-10-16T11:47:35;9.82;;;2.42;;
47021;SDS011;32779;52.264;6.154;2022-10-16T11:50:17;11.18;;;2.42;;
47021;SDS011;32779;52.264;6.154;2022-10-16T11:53:02;12.88;;;2.40;;
47021;SDS011;32779;52.264;6.154;2022-10-16T11:55:42;9.15;;;2.10;;
47021;SDS011;32779;52.264;6.154;2022-10-16T11:58:13;13.20;;;2.30;;
47021;SDS011;32779;52.264;6.154;2022-10-16T12:00:55;10.77;;;2.08;;
47021;SDS011;32779;52.264;6.154;2022-10-16T12:06:30;14.30;;;2.65;;
47021;SDS011;32779;52.264;6.154;2022-10-16T12:09:02;6.85;;;1.58;;
47021;SDS011;32779;52.264;6.154;2022-10-16T12:16:50;12.70;;;2.60;;
47021;SDS011;32779;52.264;6.154;2022-10-16T12:19:21;9.18;;;2.40;;
47021;SDS011;32779;52.264;6.154;2022-10-16T12:21:49;11.65;;;2.33;;
47021;SDS011;32779;52.264;6.154;2022-10-16T12:24:59;11.23;;;2.20;;
47021;SDS011;32779;52.264;6.154;2022-10-16T12:27:30;13.25;;;1.77;;
47021;SDS011;32779;52.264;6.154;2022-10-16T12:30:04;10.88;;;2.00;;
47021;SDS011;32779;52.264;6.154;2022-10-16T12:32:35;9.07;;;2.05;;
47021;SDS011;32779;52.264;6.154;2022-10-16T12:35:04;12.63;;;2.47;;
47021;SDS011;32779;52.264;6.154;2022-10-16T12:37:33;13.82;;;2.30;;
47021;SDS011;32779;52.264;6.154;2022-10-16T12:40:11;7.45;;;2.20;;
47021;SDS011;32779;52.264;6.154;2022-10-16T12:42:46;6.47;;;1.83;;
47021;SDS011;32779;52.264;6.154;2022-10-16T12:47:59;6.82;;;1.50;;
47021;SDS011;32779;52.264;6.154;2022-10-16T12:50:28;10.75;;;1.95;;
47021;SDS011;32779;52.264;6.154;2022-10-16T12:52:59;12.00;;;1.92;;
47021;SDS011;32779;52.264;6.154;2022-10-16T12:55:26;10.85;;;1.75;;
47021;SDS011;32779;52.264;6.154;2022-10-16T12:58:03;8.82;;;2.15;;
47021;SDS011;32779;52.264;6.154;2022-10-16T13:00:50;18.67;;;6.00;;
47021;SDS011;32779;52.264;6.154;2022-10-16T13:03:26;17.98;;;4.75;;
47021;SDS011;32779;52.264;6.154;2022-10-16T13:06:37;12.02;;;2.70;;
47021;SDS011;32779;52.264;6.154;2022-10-16T13:12:11;8.55;;;1.92;;
47021;SDS011;32779;52.264;6.154;2022-10-16T13:28:22;9.60;;;1.90;;
47021;SDS011;32779;52.264;6.154;2022-10-16T13:30:54;9.52;;;1.85;;
47021;SDS011;32779;52.264;6.154;2022-10-16T13:36:01;9.13;;;1.85;;
47021;SDS011;32779;52.264;6.154;2022-10-16T13:38:35;9.52;;;1.90;;
47021;SDS011;32779;52.264;6.154;2022-10-16T13:41:04;6.82;;;1.73;;
47021;SDS011;32779;52.264;6.154;2022-10-16T13:43:50;8.30;;;1.90;;
47021;SDS011;32779;52.264;6.154;2022-10-16T13:46:18;8.30;;;1.77;;
47021;SDS011;32779;52.264;6.154;2022-10-16T13:49:05;9.32;;;1.90;;
47021;SDS011;32779;52.264;6.154;2022-10-16T13:51:39;14.55;;;2.33;;
47021;SDS011;32779;52.264;6.154;2022-10-16T13:59:02;12.18;;;2.00;;
47021;SDS011;32779;52.264;6.154;2022-10-16T14:01:29;12.80;;;2.42;;
47021;SDS011;32779;52.264;6.154;2022-10-16T14:04:02;9.85;;;2.40;;
47021;SDS011;32779;52.264;6.154;2022-10-16T14:06:30;10.45;;;3.97;;
47021;SDS011;32779;52.264;6.154;2022-10-16T14:09:07;17.30;;;2.50;;
47021;SDS011;32779;52.264;6.154;2022-10-16T14:11:36;7.88;;;1.95;;
47021;SDS011;32779;52.264;6.154;2022-10-16T14:14:11;10.85;;;2.20;;
47021;SDS011;32779;52.264;6.154;2022-10-16T14:16:37;11.82;;;2.03;;
47021;SDS011;32779;52.264;6.154;2022-10-16T14:19:13;12.82;;;2.10;;
47021;SDS011;32779;52.264;6.154;2022-10-16T14:21:40;9.52;;;1.85;;
47021;SDS011;32779;52.264;6.154;2022-10-16T14:26:44;11.05;;;1.98;;
47021;SDS011;32779;52.264;6.154;2022-10-16T14:29:17;7.30;;;2.30;;
47021;SDS011;32779;52.264;6.154;2022-10-16T14:32:05;15.82;;;3.10;;
47021;SDS011;32779;52.264;6.154;2022-10-16T14:34:31;12.68;;;2.90;;
47021;SDS011;32779;52.264;6.154;2022-10-16T14:37:05;11.05;;;2.85;;
47021;SDS011;32779;52.264;6.154;2022-10-16T14:39:48;10.05;;;2.30;;
47021;SDS011;32779;52.264;6.154;2022-10-16T14:42:14;17.20;;;2.55;;
47021;SDS011;32779;52.264;6.154;2022-10-16T14:44:43;18.48;;;3.45;;
47021;SDS011;32779;52.264;6.154;2022-10-16T14:49:38;11.98;;;2.97;;
47021;SDS011;32779;52.264;6.154;2022-10-16T14:52:09;13.25;;;3.22;;
47021;SDS011;32779;52.264;6.154;2022-10-16T14:54:36;14.93;;;2.72;;
47021;SDS011;32779;52.264;6.154;2022-10-16T14:59:33;17.15;;;5.20;;
47021;SDS011;32779;52.264;6.154;2022-10-16T15:02:23;17.13;;;4.68;;
47021;SDS011;32779;52.264;6.154;2022-10-16T15:05:02;15.73;;;3.28;;
47021;SDS011;32779;52.264;6.154;2022-10-16T15:07:48;12.73;;;2.75;;
47021;SDS011;32779;52.264;6.154;2022-10-16T15:12:40;16.60;;;2.53;;
47021;SDS011;32779;52.264;6.154;2022-10-16T15:17:53;10.43;;;2.50;;
47021;SDS011;32779;52.264;6.154;2022-10-16T15:20:29;11.63;;;2.53;;
47021;SDS011;32779;52.264;6.154;2022-10-16T15:22:58;11.35;;;2.28;;
47021;SDS011;32779;52.264;6.154;2022-10-16T15:25:33;10.75;;;1.92;;
47021;SDS011;32779;52.264;6.154;2022-10-16T15:28:04;12.18;;;2.60;;
47021;SDS011;32779;52.264;6.154;2022-10-16T15:32:56;10.35;;;2.33;;
47021;SDS011;32779;52.264;6.154;2022-10-16T15:37:47;12.45;;;2.42;;
47021;SDS011;32779;52.264;6.154;2022-10-16T15:40:13;10.20;;;2.30;;
47021;SDS011;32779;52.264;6.154;2022-10-16T15:42:40;12.75;;;2.25;;
47021;SDS011;32779;52.264;6.154;2022-10-16T15:47:31;14.48;;;2.50;;
47021;SDS011;32779;52.264;6.154;2022-10-16T15:49:57;13.30;;;2.40;;
47021;SDS011;32779;52.264;6.154;2022-10-16T15:54:48;11.13;;;2.33;;
47021;SDS011;32779;52.264;6.154;2022-10-16T15:59:39;11.45;;;1.92;;
47021;SDS011;32779;52.264;6.154;2022-10-16T16:04:30;10.40;;;2.03;;
47021;SDS011;32779;52.264;6.154;2022-10-16T16:09:22;13.68;;;2.88;;
47021;SDS011;32779;52.264;6.154;2022-10-16T16:14:14;12.98;;;3.83;;
47021;SDS011;32779;52.264;6.154;2022-10-16T16:16:40;13.38;;;3.70;;
47021;SDS011;32779;52.264;6.154;2022-10-16T16:19:07;12.38;;;2.97;;
47021;SDS011;32779;52.264;6.154;2022-10-16T16:21:33;9.60;;;2.35;;
47021;SDS011;32779;52.264;6.154;2022-10-16T16:23:59;9.23;;;2.38;;
47021;SDS011;32779;52.264;6.154;2022-10-16T16:26:26;11.50;;;2.35;;
47021;SDS011;32779;52.264;6.154;2022-10-16T16:28:56;15.77;;;3.38;;
47021;SDS011;32779;52.264;6.154;2022-10-16T16:31:25;25.92;;;7.22;;
47021;SDS011;32779;52.264;6.154;2022-10-16T16:33:51;22.00;;;7.85;;
47021;SDS011;32779;52.264;6.154;2022-10-16T16:36:17;20.38;;;4.43;;
47021;SDS011;32779;52.264;6.154;2022-10-16T16:43:44;14.50;;;3.85;;
47021;SDS011;32779;52.264;6.154;2022-10-16T16:46:10;18.23;;;4.28;;
47021;SDS011;32779;52.264;6.154;2022-10-16T16:48:37;17.80;;;3.80;;
47021;SDS011;32779;52.264;6.154;2022-10-16T16:51:07;19.00;;;5.47;;
47021;SDS011;32779;52.264;6.154;2022-10-16T16:53:44;10.52;;;4.15;;
47021;SDS011;32779;52.264;6.154;2022-10-16T16:56:11;11.95;;;4.47;;
47021;SDS011;32779;52.264;6.154;2022-10-16T16:58:37;18.50;;;4.43;;
47021;SDS011;32779;52.264;6.154;2022-10-16T17:01:03;16.17;;;3.55;;
47021;SDS011;32779;52.264;6.154;2022-10-16T17:03:31;14.52;;;3.28;;
47021;SDS011;32779;52.264;6.154;2022-10-16T17:06:02;14.65;;;3.60;;
47021;SDS011;32779;52.264;6.154;2022-10-16T17:08:33;10.20;;;3.15;;
47021;SDS011;32779;52.264;6.154;2022-10-16T17:11:02;12.18;;;3.70;;
47021;SDS011;32779;52.264;6.154;2022-10-16T17:13:29;8.75;;;2.80;;
47021;SDS011;32779;52.264;6.154;2022-10-16T17:16:02;15.82;;;4.00;;
47021;SDS011;32779;52.264;6.154;2022-10-16T17:18:29;11.98;;;3.47;;
47021;SDS011;32779;52.264;6.154;2022-10-16T17:20:58;12.98;;;3.17;;
47021;SDS011;32779;52.264;6.154;2022-10-16T17:23:25;13.48;;;3.47;;
47021;SDS011;32779;52.264;6.154;2022-10-16T17:25:50;14.18;;;3.92;;
47021;SDS011;32779;52.264;6.154;2022-10-16T17:28:16;12.85;;;4.40;;
47021;SDS011;32779;52.264;6.154;2022-10-16T17:33:08;13.02;;;4.68;;
47021;SDS011;32779;52.264;6.154;2022-10-16T17:35:39;18.80;;;6.00;;
47021;SDS011;32779;52.264;6.154;2022-10-16T17:38:06;16.45;;;4.88;;
47021;SDS011;32779;52.264;6.154;2022-10-16T17:40:32;14.75;;;4.80;;